East Shoals, Indiana
Current Conditions -  °F | °C
As of 10:35 PM on Saturday 22 Nov 2014 (Local Time) from KDCY Reporting Station
Overcast Overcast  
Wind Chill: 52°   Ceiling: 6000
Heat Index: 52°   Visibility: 10mi
Dew Point: 39°   Wind: 8mph
Humidity: 61%   Direction: 170°S
Pressure: 29.99"   Gusts: NA
Location:  38.6262°N, 86.7615°W
Report Text: KDCY 230435Z AUTO 17007KT 10SM SCT048 BKN060 OVC100 11/04 A2999 RMK AO2 T01120039
Loading
Personal Weather Stations






























Interactive Weather Map New forecast layout! Learn more

10-Day Weather Forecast

Advertisements
Track Severe Weather on mobile